createdAt,value
2022-10-22T00:00:13.726Z,1010.36
2022-10-22T00:01:13.595Z,1010.33
2022-10-22T00:02:13.583Z,1010.38
2022-10-22T00:03:13.814Z,1010.39
2022-10-22T00:04:13.714Z,1010.36
2022-10-22T00:05:13.616Z,1010.40
2022-10-22T00:06:13.545Z,1010.39
2022-10-22T00:07:18.619Z,1010.37
2022-10-22T00:08:13.789Z,1010.42
2022-10-22T00:09:13.944Z,1010.46
2022-10-22T00:10:13.124Z,1010.42
2022-10-22T00:11:13.150Z,1010.46
2022-10-22T00:12:14.836Z,1010.42
2022-10-22T00:13:14.102Z,1010.43
2022-10-22T00:14:13.046Z,1010.45
2022-10-22T00:15:12.953Z,1010.45
2022-10-22T00:16:13.249Z,1010.45
2022-10-22T00:17:13.554Z,1010.44
2022-10-22T00:18:13.599Z,1010.44
2022-10-22T00:19:13.672Z,1010.47
2022-10-22T00:20:13.662Z,1010.44
2022-10-22T00:21:13.784Z,1010.50
2022-10-22T00:22:14.097Z,1010.52
2022-10-22T00:23:12.950Z,1010.53
2022-10-22T00:24:12.923Z,1010.56
2022-10-22T00:25:12.803Z,1010.62
2022-10-22T00:26:13.756Z,1010.61
2022-10-22T00:27:13.623Z,1010.61
2022-10-22T00:28:13.478Z,1010.63
2022-10-22T00:29:13.433Z,1010.64
2022-10-22T00:30:13.368Z,1010.63
2022-10-22T00:31:13.284Z,1010.68
2022-10-22T00:32:13.266Z,1010.63
2022-10-22T00:33:13.386Z,1010.63
2022-10-22T00:34:13.389Z,1010.69
2022-10-22T00:35:13.330Z,1010.68
2022-10-22T00:36:13.250Z,1010.66
2022-10-22T00:37:13.636Z,1010.69
2022-10-22T00:38:13.844Z,1010.66
2022-10-22T00:39:13.928Z,1010.63
2022-10-22T00:40:12.871Z,1010.57
2022-10-22T00:41:14.093Z,1010.58
2022-10-22T00:42:13.384Z,1010.62
2022-10-22T00:43:13.919Z,1010.61
2022-10-22T00:44:12.920Z,1010.63
2022-10-22T00:45:12.999Z,1010.68
2022-10-22T00:46:13.323Z,1010.68
2022-10-22T00:47:13.363Z,1010.60
2022-10-22T00:48:13.544Z,1010.58
2022-10-22T00:49:13.608Z,1010.59
2022-10-22T00:50:13.849Z,1010.61
2022-10-22T00:51:13.893Z,1010.64
2022-10-22T00:52:12.878Z,1010.63
2022-10-22T00:53:13.781Z,1010.63
2022-10-22T00:54:14.028Z,1010.61
2022-10-22T00:55:12.944Z,1010.59
2022-10-22T00:56:12.823Z,1010.64
2022-10-22T00:57:13.664Z,1010.63
2022-10-22T00:58:13.649Z,1010.65
2022-10-22T00:59:13.495Z,1010.64
2022-10-22T01:00:13.408Z,1010.70
2022-10-22T01:01:13.543Z,1010.65
2022-10-22T01:02:13.659Z,1010.63
2022-10-22T01:03:13.478Z,1010.60
2022-10-22T01:04:13.726Z,1010.59
2022-10-22T01:05:13.582Z,1010.56
2022-10-22T01:06:13.647Z,1010.55
2022-10-22T01:07:13.644Z,1010.50
2022-10-22T01:08:13.667Z,1010.54
2022-10-22T01:09:14.211Z,1010.54
2022-10-22T01:10:13.409Z,1010.51
2022-10-22T01:11:13.302Z,1010.48
2022-10-22T01:12:13.161Z,1010.48
2022-10-22T01:13:13.599Z,1010.51
2022-10-22T01:14:13.616Z,1010.47
2022-10-22T01:15:13.478Z,1010.44
2022-10-22T01:16:13.632Z,1010.46
2022-10-22T01:17:13.494Z,1010.46
2022-10-22T01:18:13.861Z,1010.45
2022-10-22T01:19:13.910Z,1010.46
2022-10-22T01:20:12.881Z,1010.48
2022-10-22T01:21:13.824Z,1010.43
2022-10-22T01:22:13.856Z,1010.46
2022-10-22T01:23:13.928Z,1010.50
2022-10-22T01:24:12.731Z,1010.42
2022-10-22T01:25:14.099Z,1010.41
2022-10-22T01:26:13.318Z,1010.47
2022-10-22T01:27:13.367Z,1010.44
2022-10-22T01:28:13.613Z,1010.47
2022-10-22T01:29:13.793Z,1010.43
2022-10-22T01:30:13.711Z,1010.42
2022-10-22T01:31:13.586Z,1010.38
2022-10-22T01:32:13.856Z,1010.35
2022-10-22T01:33:14.277Z,1010.32
2022-10-22T01:34:13.456Z,1010.29
2022-10-22T01:35:13.362Z,1010.36
2022-10-22T01:36:13.476Z,1010.43
2022-10-22T01:37:13.364Z,1010.42
2022-10-22T01:38:13.404Z,1010.39
2022-10-22T01:39:13.516Z,1010.36
2022-10-22T01:40:13.701Z,1010.33
2022-10-22T01:41:13.920Z,1010.38
2022-10-22T01:42:12.839Z,1010.40
2022-10-22T01:43:14.087Z,1010.39
2022-10-22T01:44:13.112Z,1010.33
2022-10-22T01:45:13.316Z,1010.36
2022-10-22T01:46:13.549Z,1010.33
2022-10-22T01:47:13.613Z,1010.34
2022-10-22T01:48:13.716Z,1010.34
2022-10-22T01:49:13.751Z,1010.32
2022-10-22T01:50:13.835Z,1010.33
2022-10-22T01:51:14.121Z,1010.28
2022-10-22T01:52:13.506Z,1010.22
2022-10-22T01:53:13.532Z,1010.19
2022-10-22T01:54:13.796Z,1010.19
2022-10-22T01:55:13.676Z,1010.18
2022-10-22T01:56:13.506Z,1010.16
2022-10-22T01:57:13.890Z,1010.14
2022-10-22T01:58:13.738Z,1010.09
2022-10-22T01:59:13.721Z,1010.08
2022-10-22T02:00:13.526Z,1010.06
2022-10-22T02:01:13.571Z,1010.08
2022-10-22T02:02:13.520Z,1010.08
2022-10-22T02:03:13.440Z,1010.12
2022-10-22T02:04:13.466Z,1010.13
2022-10-22T02:05:13.523Z,1010.10
2022-10-22T02:06:13.649Z,1010.09
2022-10-22T02:07:13.578Z,1010.01
2022-10-22T02:08:13.538Z,1010.00
2022-10-22T02:09:13.712Z,1010.05
2022-10-22T02:10:13.633Z,1010.08
2022-10-22T02:11:13.536Z,1010.08
2022-10-22T02:12:13.341Z,1010.07
2022-10-22T02:13:13.170Z,1010.07
2022-10-22T02:14:13.117Z,1010.10
2022-10-22T02:15:13.075Z,1010.13
2022-10-22T02:16:12.998Z,1010.14
2022-10-22T02:17:12.933Z,1010.14
2022-10-22T02:18:12.765Z,1010.16
2022-10-22T02:19:13.891Z,1010.07
2022-10-22T02:20:12.763Z,1010.07
2022-10-22T02:21:13.780Z,1010.06
2022-10-22T02:22:13.693Z,1010.08
2022-10-22T02:23:18.882Z,1010.12
2022-10-22T02:24:13.786Z,1010.14
2022-10-22T02:25:13.917Z,1010.16
2022-10-22T02:26:12.883Z,1010.12
2022-10-22T02:27:14.115Z,1010.08
2022-10-22T02:28:13.068Z,1010.14
2022-10-22T02:29:12.994Z,1010.17
2022-10-22T02:30:12.934Z,1010.22
2022-10-22T02:31:12.889Z,1010.24
2022-10-22T02:32:13.805Z,1010.25
2022-10-22T02:33:13.587Z,1010.27
2022-10-22T02:34:13.567Z,1010.25
2022-10-22T02:35:13.715Z,1010.26
2022-10-22T02:36:13.629Z,1010.24
2022-10-22T02:37:13.648Z,1010.30
2022-10-22T02:38:13.689Z,1010.28
2022-10-22T02:39:14.064Z,1010.28
2022-10-22T02:40:13.126Z,1010.30
2022-10-22T02:41:13.061Z,1010.29
2022-10-22T02:42:13.020Z,1010.30
2022-10-22T02:43:12.989Z,1010.31
2022-10-22T02:44:12.914Z,1010.33
2022-10-22T02:45:13.050Z,1010.31
2022-10-22T02:46:12.948Z,1010.33
2022-10-22T02:47:13.290Z,1010.30
2022-10-22T02:48:13.365Z,1010.33
2022-10-22T02:49:13.616Z,1010.32
2022-10-22T02:50:13.590Z,1010.32
2022-10-22T02:51:13.493Z,1010.36
2022-10-22T02:52:13.474Z,1010.33
2022-10-22T02:53:13.417Z,1010.32
2022-10-22T02:54:13.335Z,1010.31
2022-10-22T02:55:13.707Z,1010.32
2022-10-22T02:56:13.849Z,1010.31
2022-10-22T02:57:14.247Z,1010.32
2022-10-22T02:58:13.643Z,1010.31
2022-10-22T02:59:14.037Z,1010.34
2022-10-22T03:00:12.898Z,1010.37
2022-10-22T03:01:16.139Z,1010.37
2022-10-22T03:02:13.885Z,1010.38
2022-10-22T03:03:14.107Z,1010.39
2022-10-22T03:04:13.157Z,1010.37
2022-10-22T03:05:13.144Z,1010.34
2022-10-22T03:06:13.339Z,1010.36
2022-10-22T03:07:13.830Z,1010.39
2022-10-22T03:08:14.003Z,1010.40
2022-10-22T03:09:13.305Z,1010.40
2022-10-22T03:10:13.274Z,1010.41
2022-10-22T03:11:13.673Z,1010.38
2022-10-22T03:12:13.961Z,1010.37
2022-10-22T03:13:12.887Z,1010.34
2022-10-22T03:14:13.912Z,1010.36
2022-10-22T03:15:13.345Z,1010.36
2022-10-22T03:16:13.487Z,1010.39
2022-10-22T03:17:13.342Z,1010.40
2022-10-22T03:18:13.307Z,1010.44
2022-10-22T03:19:13.315Z,1010.43
2022-10-22T03:20:13.300Z,1010.48
2022-10-22T03:21:13.291Z,1010.47
2022-10-22T03:22:13.318Z,1010.47
2022-10-22T03:23:13.468Z,1010.46
2022-10-22T03:24:13.384Z,1010.49
2022-10-22T03:25:13.326Z,1010.43
2022-10-22T03:26:13.214Z,1010.44
2022-10-22T03:27:13.332Z,1010.44
2022-10-22T03:28:13.337Z,1010.45
2022-10-22T03:29:13.459Z,1010.47
2022-10-22T03:30:13.319Z,1010.47
2022-10-22T03:31:13.238Z,1010.47
2022-10-22T03:32:13.461Z,1010.46
2022-10-22T03:33:13.504Z,1010.45
2022-10-22T03:34:14.006Z,1010.43
2022-10-22T03:35:13.065Z,1010.42
2022-10-22T03:36:13.432Z,1010.41
2022-10-22T03:37:18.393Z,1010.43
2022-10-22T03:38:13.714Z,1010.48
2022-10-22T03:39:13.587Z,1010.46
2022-10-22T03:40:13.614Z,1010.49
2022-10-22T03:41:13.580Z,1010.44
2022-10-22T03:42:13.507Z,1010.50
2022-10-22T03:43:13.747Z,1010.48
2022-10-22T03:44:13.781Z,1010.47
2022-10-22T03:45:14.474Z,1010.51
2022-10-22T03:46:13.562Z,1010.51
2022-10-22T03:47:13.435Z,1010.52
2022-10-22T03:48:13.568Z,1010.53
2022-10-22T03:49:13.399Z,1010.52
2022-10-22T03:50:13.532Z,1010.53
2022-10-22T03:51:13.987Z,1010.56
2022-10-22T03:52:13.164Z,1010.54
2022-10-22T03:53:13.378Z,1010.50
2022-10-22T03:54:13.570Z,1010.55
2022-10-22T03:55:13.770Z,1010.55
2022-10-22T03:56:13.793Z,1010.58
2022-10-22T03:57:13.666Z,1010.62
2022-10-22T03:58:13.672Z,1010.61
2022-10-22T03:59:13.996Z,1010.64
2022-10-22T04:00:12.991Z,1010.63
2022-10-22T04:01:13.022Z,1010.66
2022-10-22T04:02:13.248Z,1010.68
2022-10-22T04:03:13.499Z,1010.64
2022-10-22T04:04:13.628Z,1010.64
2022-10-22T04:06:13.525Z,1010.72
2022-10-22T04:07:13.417Z,1010.70
2022-10-22T04:08:13.763Z,1010.72
2022-10-22T04:09:14.250Z,1010.75
2022-10-22T04:10:13.380Z,1010.69
2022-10-22T04:11:13.647Z,1010.73
2022-10-22T04:12:13.544Z,1010.75
2022-10-22T04:13:13.609Z,1010.77
2022-10-22T04:14:13.523Z,1010.74
2022-10-22T04:15:13.390Z,1010.76
2022-10-22T04:16:13.676Z,1010.78
2022-10-22T04:17:13.702Z,1010.77
2022-10-22T04:18:13.870Z,1010.78
2022-10-22T04:19:13.878Z,1010.80
2022-10-22T04:20:13.775Z,1010.77
2022-10-22T04:21:14.062Z,1010.78
2022-10-22T04:22:12.896Z,1010.75
2022-10-22T04:23:12.951Z,1010.76
2022-10-22T04:24:13.261Z,1010.80
2022-10-22T04:25:13.205Z,1010.81
2022-10-22T04:26:13.084Z,1010.83
2022-10-22T04:27:13.046Z,1010.82
2022-10-22T04:28:13.089Z,1010.84
2022-10-22T04:29:15.991Z,1010.81
2022-10-22T04:30:13.759Z,1010.87
2022-10-22T04:31:13.804Z,1010.86
2022-10-22T04:32:13.954Z,1010.86
2022-10-22T04:33:13.336Z,1010.89
2022-10-22T04:34:13.794Z,1010.90
2022-10-22T04:35:13.801Z,1010.91
2022-10-22T04:36:13.661Z,1010.89
2022-10-22T04:37:13.784Z,1010.88
2022-10-22T04:38:13.679Z,1010.86
2022-10-22T04:39:13.690Z,1010.86
2022-10-22T04:40:13.593Z,1010.82
2022-10-22T04:41:13.424Z,1010.87
2022-10-22T04:42:13.437Z,1010.84
2022-10-22T04:43:13.378Z,1010.83
2022-10-22T04:44:16.911Z,1010.80
2022-10-22T04:45:13.341Z,1010.80
2022-10-22T04:46:13.228Z,1010.78
2022-10-22T04:47:13.453Z,1010.83
2022-10-22T04:48:13.381Z,1010.83
2022-10-22T04:49:13.478Z,1010.84
2022-10-22T04:50:13.533Z,1010.84
2022-10-22T04:51:13.434Z,1010.83
2022-10-22T04:52:13.238Z,1010.86
2022-10-22T04:53:13.403Z,1010.86
2022-10-22T04:54:14.961Z,1010.87
2022-10-22T04:55:13.517Z,1010.86
2022-10-22T04:56:13.503Z,1010.85
2022-10-22T04:57:13.451Z,1010.81
2022-10-22T04:58:13.377Z,1010.80
2022-10-22T04:59:13.699Z,1010.80
2022-10-22T05:00:13.502Z,1010.80
2022-10-22T05:01:13.427Z,1010.79
2022-10-22T05:02:13.554Z,1010.83
2022-10-22T05:03:13.660Z,1010.84
2022-10-22T05:04:13.677Z,1010.85
2022-10-22T05:05:14.030Z,1010.89
2022-10-22T05:07:12.895Z,1010.91
2022-10-22T05:08:13.861Z,1010.93
2022-10-22T05:09:13.960Z,1010.93
2022-10-22T05:10:13.204Z,1010.90
2022-10-22T05:11:13.412Z,1010.90
2022-10-22T05:12:13.214Z,1010.89
2022-10-22T05:13:13.037Z,1010.93
2022-10-22T05:14:12.884Z,1010.95
2022-10-22T05:15:13.967Z,1010.96
2022-10-22T05:16:12.861Z,1010.98
2022-10-22T05:17:13.752Z,1011.02
2022-10-22T05:18:14.184Z,1011.01
2022-10-22T05:19:13.784Z,1011.04
2022-10-22T05:20:13.704Z,1011.01
2022-10-22T05:21:13.805Z,1011.04
2022-10-22T05:22:14.030Z,1011.05
2022-10-22T05:23:13.010Z,1011.05
2022-10-22T05:24:13.310Z,1011.01
2022-10-22T05:25:13.431Z,1011.00
2022-10-22T05:26:13.335Z,1011.01
2022-10-22T05:27:13.806Z,1011.02
2022-10-22T05:28:13.875Z,1011.03
2022-10-22T05:29:13.794Z,1011.01
2022-10-22T05:30:13.879Z,1011.05
2022-10-22T05:31:14.298Z,1011.06
2022-10-22T05:32:13.176Z,1011.08
2022-10-22T05:33:13.472Z,1011.10
2022-10-22T05:34:13.394Z,1011.11
2022-10-22T05:35:13.317Z,1011.12
2022-10-22T05:36:13.607Z,1011.15
2022-10-22T05:37:13.712Z,1011.13
2022-10-22T05:38:13.708Z,1011.17
2022-10-22T05:39:13.754Z,1011.14
2022-10-22T05:40:26.447Z,1011.18
2022-10-22T05:41:12.987Z,1011.16
2022-10-22T05:42:13.073Z,1011.20
2022-10-22T05:43:12.899Z,1011.23
2022-10-22T05:44:13.835Z,1011.18
2022-10-22T05:45:13.685Z,1011.23
2022-10-22T05:46:16.547Z,1011.23
2022-10-22T05:47:13.708Z,1011.24
2022-10-22T05:48:13.658Z,1011.24
2022-10-22T05:49:14.061Z,1011.23
2022-10-22T05:50:12.932Z,1011.22
2022-10-22T05:51:12.816Z,1011.28
2022-10-22T05:52:13.692Z,1011.27
2022-10-22T05:53:13.575Z,1011.27
2022-10-22T05:54:13.568Z,1011.26
2022-10-22T05:55:13.581Z,1011.32
2022-10-22T05:56:14.727Z,1011.25
2022-10-22T05:57:13.710Z,1011.26
2022-10-22T05:58:14.885Z,1011.28
2022-10-22T05:59:12.875Z,1011.35
2022-10-22T06:00:16.387Z,1011.37
2022-10-22T06:01:13.558Z,1011.40
2022-10-22T06:02:14.617Z,1011.44
2022-10-22T06:03:13.777Z,1011.43
2022-10-22T06:04:12.880Z,1011.49
2022-10-22T06:05:13.893Z,1011.48
2022-10-22T06:06:12.923Z,1011.48
2022-10-22T06:07:13.167Z,1011.50
2022-10-22T06:08:18.153Z,1011.48
2022-10-22T06:09:13.601Z,1011.49
2022-10-22T06:10:13.544Z,1011.50
2022-10-22T06:11:13.470Z,1011.50
2022-10-22T06:12:13.699Z,1011.52
2022-10-22T06:13:13.577Z,1011.48
2022-10-22T06:14:13.497Z,1011.57
2022-10-22T06:15:13.759Z,1011.54
2022-10-22T06:16:13.786Z,1011.54
2022-10-22T06:17:13.872Z,1011.53
2022-10-22T06:18:14.008Z,1011.55
2022-10-22T06:19:12.907Z,1011.58
2022-10-22T06:20:13.307Z,1011.60
2022-10-22T06:21:13.263Z,1011.60
2022-10-22T06:22:13.476Z,1011.65
2022-10-22T06:23:13.506Z,1011.64
2022-10-22T06:24:13.549Z,1011.65
2022-10-22T06:25:13.359Z,1011.68
2022-10-22T06:26:13.658Z,1011.70
2022-10-22T06:27:36.671Z,1011.66
2022-10-22T06:28:13.674Z,1011.68
2022-10-22T06:29:13.551Z,1011.72
2022-10-22T06:30:18.677Z,1011.67
2022-10-22T06:31:13.654Z,1011.68
2022-10-22T06:32:13.893Z,1011.71
2022-10-22T06:33:14.089Z,1011.75
2022-10-22T06:34:13.380Z,1011.75
2022-10-22T06:35:13.332Z,1011.75
2022-10-22T06:36:13.604Z,1011.79
2022-10-22T06:37:13.845Z,1011.81
2022-10-22T06:38:13.890Z,1011.84
2022-10-22T06:39:12.912Z,1011.83
2022-10-22T06:40:12.765Z,1011.84
2022-10-22T06:41:13.852Z,1011.86
2022-10-22T06:42:13.977Z,1011.87
2022-10-22T06:43:13.156Z,1011.89
2022-10-22T06:44:13.114Z,1011.94
2022-10-22T06:45:13.014Z,1011.96
2022-10-22T06:46:14.931Z,1012.02
2022-10-22T06:47:13.594Z,1011.99
2022-10-22T06:48:13.499Z,1012.00
2022-10-22T06:49:13.681Z,1012.01
2022-10-22T06:50:13.695Z,1012.00
2022-10-22T06:51:13.733Z,1012.04
2022-10-22T06:52:13.897Z,1012.04
2022-10-22T06:53:13.988Z,1012.05
2022-10-22T06:54:12.920Z,1012.10
2022-10-22T06:55:12.910Z,1012.12
2022-10-22T06:56:13.377Z,1012.12
2022-10-22T06:57:13.477Z,1012.16
2022-10-22T06:58:13.286Z,1012.13
2022-10-22T06:59:13.332Z,1012.24
2022-10-22T07:00:13.232Z,1012.22
2022-10-22T07:01:13.238Z,1012.25
2022-10-22T07:02:13.184Z,1012.22
2022-10-22T07:03:13.289Z,1012.29
2022-10-22T07:04:13.122Z,1012.28
2022-10-22T07:05:12.990Z,1012.30
2022-10-22T07:06:12.907Z,1012.33
2022-10-22T07:07:12.956Z,1012.38
2022-10-22T07:08:12.869Z,1012.32
2022-10-22T07:09:14.104Z,1012.34
2022-10-22T07:10:13.371Z,1012.35
2022-10-22T07:11:13.496Z,1012.39
2022-10-22T07:12:13.845Z,1012.42
2022-10-22T07:13:13.762Z,1012.40
2022-10-22T07:14:13.718Z,1012.42
2022-10-22T07:15:13.609Z,1012.45
2022-10-22T07:16:13.827Z,1012.40
2022-10-22T07:17:13.730Z,1012.47
2022-10-22T07:18:19.017Z,1012.47
2022-10-22T07:19:12.935Z,1012.47
2022-10-22T07:20:12.956Z,1012.52
2022-10-22T07:21:12.866Z,1012.51
2022-10-22T07:22:14.046Z,1012.55
2022-10-22T07:23:12.867Z,1012.59
2022-10-22T07:24:13.737Z,1012.55
2022-10-22T07:25:13.865Z,1012.58
2022-10-22T07:26:44.536Z,1012.61
2022-10-22T07:27:14.114Z,1012.62
2022-10-22T07:28:13.280Z,1012.61
2022-10-22T07:29:13.196Z,1012.66
2022-10-22T07:30:13.371Z,1012.61
2022-10-22T07:31:13.243Z,1012.64
2022-10-22T07:32:13.288Z,1012.63
2022-10-22T07:33:13.369Z,1012.65
2022-10-22T07:34:13.582Z,1012.69
2022-10-22T07:35:13.770Z,1012.67
2022-10-22T07:36:14.233Z,1012.64
2022-10-22T07:38:01.216Z,1012.71
2022-10-22T07:38:13.339Z,1012.73
2022-10-22T07:39:35.548Z,1012.74
2022-10-22T07:40:13.907Z,1012.79
2022-10-22T07:41:13.091Z,1012.79
2022-10-22T07:42:20.463Z,1012.78
2022-10-22T07:43:13.897Z,1012.82
2022-10-22T07:44:13.360Z,1012.78
2022-10-22T07:45:35.507Z,1012.82
2022-10-22T07:46:13.808Z,1012.83
2022-10-22T07:47:13.907Z,1012.80
2022-10-22T07:48:12.745Z,1012.79
2022-10-22T07:49:13.790Z,1012.80
2022-10-22T07:50:13.700Z,1012.83
2022-10-22T07:51:13.713Z,1012.85
2022-10-22T07:52:13.888Z,1012.87
2022-10-22T07:53:12.902Z,1012.89
2022-10-22T07:54:13.159Z,1012.90
2022-10-22T07:55:44.679Z,1012.89
2022-10-22T07:56:13.630Z,1012.90
2022-10-22T07:57:13.571Z,1012.89
2022-10-22T07:58:13.960Z,1012.91
2022-10-22T07:59:13.366Z,1012.96
2022-10-22T08:00:13.838Z,1012.93
2022-10-22T08:01:14.087Z,1013.00
2022-10-22T08:02:13.415Z,1012.99
2022-10-22T08:03:13.491Z,1013.02
2022-10-22T08:04:13.506Z,1013.05
2022-10-22T08:05:42.154Z,1013.04
2022-10-22T08:06:13.170Z,1013.04
2022-10-22T08:07:13.354Z,1013.05
2022-10-22T08:08:13.588Z,1013.01
2022-10-22T08:09:13.753Z,1013.00
2022-10-22T08:10:13.803Z,1013.03
2022-10-22T08:11:19.064Z,1013.03
2022-10-22T08:12:13.166Z,1013.06
2022-10-22T08:13:13.387Z,1013.10
2022-10-22T08:14:13.337Z,1013.08
2022-10-22T08:15:13.598Z,1013.08
2022-10-22T08:16:14.089Z,1013.07
2022-10-22T08:17:13.380Z,1013.16
2022-10-22T08:18:13.258Z,1013.14
2022-10-22T08:19:13.320Z,1013.14
2022-10-22T08:20:13.356Z,1013.13
2022-10-22T08:21:13.773Z,1013.11
2022-10-22T08:22:14.246Z,1013.14
2022-10-22T08:23:13.356Z,1013.17
2022-10-22T08:24:14.449Z,1013.22
2022-10-22T08:25:13.638Z,1013.15
2022-10-22T08:26:13.568Z,1013.25
2022-10-22T08:27:13.793Z,1013.23
2022-10-22T08:28:14.999Z,1013.22
2022-10-22T08:29:13.620Z,1013.23
2022-10-22T08:30:13.949Z,1013.25
2022-10-22T08:31:48.140Z,1013.24
2022-10-22T08:32:13.410Z,1013.28
2022-10-22T08:33:13.479Z,1013.27
2022-10-22T08:34:13.458Z,1013.25
2022-10-22T08:35:16.801Z,1013.24
2022-10-22T08:36:13.955Z,1013.26
2022-10-22T08:37:12.887Z,1013.29
2022-10-22T08:38:12.795Z,1013.29
2022-10-22T08:39:14.101Z,1013.36
2022-10-22T08:40:13.146Z,1013.38
2022-10-22T08:41:13.062Z,1013.38
2022-10-22T08:42:18.107Z,1013.36
2022-10-22T08:43:13.383Z,1013.38
2022-10-22T08:44:13.374Z,1013.41
2022-10-22T08:45:13.623Z,1013.44
2022-10-22T08:46:13.833Z,1013.45
2022-10-22T08:48:24.605Z,1013.41
2022-10-22T08:49:13.737Z,1013.41
2022-10-22T08:50:13.682Z,1013.40
2022-10-22T08:51:42.970Z,1013.44
2022-10-22T08:52:13.006Z,1013.47
2022-10-22T08:53:13.137Z,1013.47
2022-10-22T08:54:13.508Z,1013.50
2022-10-22T08:55:13.731Z,1013.48
2022-10-22T08:56:13.880Z,1013.51
2022-10-22T08:57:13.901Z,1013.57
2022-10-22T08:58:13.039Z,1013.60
2022-10-22T08:59:13.090Z,1013.57
2022-10-22T09:00:13.021Z,1013.59
2022-10-22T09:01:13.172Z,1013.61
2022-10-22T09:02:14.172Z,1013.62
2022-10-22T09:03:13.605Z,1013.67
2022-10-22T09:04:13.853Z,1013.64
2022-10-22T09:05:13.995Z,1013.66
2022-10-22T09:06:13.262Z,1013.67
2022-10-22T09:07:13.493Z,1013.69
2022-10-22T09:08:13.550Z,1013.67
2022-10-22T09:09:13.539Z,1013.63
2022-10-22T09:10:13.719Z,1013.69
2022-10-22T09:11:13.786Z,1013.72
2022-10-22T09:12:17.728Z,1013.73
2022-10-22T09:13:13.218Z,1013.75
2022-10-22T09:14:13.305Z,1013.74
2022-10-22T09:15:13.273Z,1013.74
2022-10-22T09:16:13.298Z,1013.79
2022-10-22T09:17:13.125Z,1013.74
2022-10-22T09:18:13.387Z,1013.78
2022-10-22T09:19:13.274Z,1013.75
2022-10-22T09:20:13.333Z,1013.77
2022-10-22T09:21:13.492Z,1013.81
2022-10-22T09:22:13.458Z,1013.78
2022-10-22T09:23:13.357Z,1013.82
2022-10-22T09:24:13.286Z,1013.84
2022-10-22T09:25:13.263Z,1013.84
2022-10-22T09:26:13.149Z,1013.86
2022-10-22T09:27:13.578Z,1013.88
2022-10-22T09:28:13.893Z,1013.86
2022-10-22T09:29:14.223Z,1013.80
2022-10-22T09:30:14.533Z,1013.90
2022-10-22T09:31:13.477Z,1013.89
2022-10-22T09:32:13.414Z,1013.90
2022-10-22T09:33:13.399Z,1013.93
2022-10-22T09:34:13.333Z,1013.91
2022-10-22T09:35:13.487Z,1013.93
2022-10-22T09:36:13.590Z,1013.92
2022-10-22T09:37:13.635Z,1013.96
2022-10-22T09:38:13.631Z,1013.96
2022-10-22T09:39:13.707Z,1013.95
2022-10-22T09:40:13.722Z,1013.98
2022-10-22T09:41:13.776Z,1014.00
2022-10-22T09:42:13.802Z,1014.01
2022-10-22T09:43:13.786Z,1014.01
2022-10-22T09:44:13.838Z,1014.06
2022-10-22T09:45:13.831Z,1014.07
2022-10-22T09:46:13.850Z,1014.04
2022-10-22T09:47:14.609Z,1014.05
2022-10-22T09:48:13.843Z,1014.03
2022-10-22T09:49:14.887Z,1014.05
2022-10-22T09:50:14.224Z,1014.06
2022-10-22T09:51:13.360Z,1014.09
2022-10-22T09:52:13.371Z,1014.08
2022-10-22T09:53:13.563Z,1014.08
2022-10-22T09:54:13.767Z,1014.05
2022-10-22T09:55:13.689Z,1014.05
2022-10-22T09:56:13.933Z,1014.11
2022-10-22T09:57:12.858Z,1014.11
2022-10-22T09:58:13.863Z,1014.07
2022-10-22T09:59:13.914Z,1014.07
2022-10-22T10:00:13.016Z,1014.11
2022-10-22T10:01:17.992Z,1014.14
2022-10-22T10:02:20.391Z,1014.10
2022-10-22T10:03:13.180Z,1014.18
2022-10-22T10:04:13.188Z,1014.12
2022-10-22T10:05:13.474Z,1014.16
2022-10-22T10:06:13.596Z,1014.17
2022-10-22T10:07:13.472Z,1014.16
2022-10-22T10:08:14.038Z,1014.16
2022-10-22T10:09:13.145Z,1014.20
2022-10-22T10:10:13.264Z,1014.19
2022-10-22T10:11:13.268Z,1014.19
2022-10-22T10:12:13.129Z,1014.24
2022-10-22T10:13:13.223Z,1014.28
2022-10-22T10:14:13.419Z,1014.29
2022-10-22T10:15:13.847Z,1014.25
2022-10-22T10:16:14.145Z,1014.27
2022-10-22T10:17:13.248Z,1014.29
2022-10-22T10:18:13.268Z,1014.27
2022-10-22T10:19:13.205Z,1014.27
2022-10-22T10:20:13.311Z,1014.29
2022-10-22T10:22:13.756Z,1014.30
2022-10-22T10:23:13.771Z,1014.33
2022-10-22T10:24:13.846Z,1014.33
2022-10-22T10:25:13.799Z,1014.34
2022-10-22T10:26:13.781Z,1014.38
2022-10-22T10:27:13.743Z,1014.38
2022-10-22T10:28:13.582Z,1014.42
2022-10-22T10:29:13.523Z,1014.39
2022-10-22T10:30:13.388Z,1014.41
2022-10-22T10:31:14.405Z,1014.43
2022-10-22T10:32:13.296Z,1014.46
2022-10-22T10:33:13.424Z,1014.49
2022-10-22T10:34:13.499Z,1014.40
2022-10-22T10:35:13.438Z,1014.51
2022-10-22T10:36:13.649Z,1014.50
2022-10-22T10:37:13.753Z,1014.50
2022-10-22T10:38:13.967Z,1014.43
2022-10-22T10:39:14.164Z,1014.49
2022-10-22T10:40:13.170Z,1014.53
2022-10-22T10:41:13.331Z,1014.54
2022-10-22T10:42:13.328Z,1014.56
2022-10-22T10:43:13.499Z,1014.57
2022-10-22T10:44:13.375Z,1014.56
2022-10-22T10:45:13.260Z,1014.54
2022-10-22T10:46:13.106Z,1014.55
2022-10-22T10:47:12.975Z,1014.56
2022-10-22T10:48:12.983Z,1014.49
2022-10-22T10:49:12.880Z,1014.58
2022-10-22T10:50:13.783Z,1014.58
2022-10-22T10:51:14.043Z,1014.57
2022-10-22T10:52:17.431Z,1014.61
2022-10-22T10:53:13.512Z,1014.58
2022-10-22T10:54:13.350Z,1014.64
2022-10-22T10:55:13.667Z,1014.56
2022-10-22T10:56:13.469Z,1014.59
2022-10-22T10:57:13.561Z,1014.61
2022-10-22T10:58:13.379Z,1014.62
2022-10-22T10:59:13.477Z,1014.61
2022-10-22T11:00:13.761Z,1014.61
2022-10-22T11:01:14.062Z,1014.63
2022-10-22T11:02:13.326Z,1014.61
2022-10-22T11:03:13.173Z,1014.60
2022-10-22T11:04:13.342Z,1014.54
2022-10-22T11:05:13.277Z,1014.57
2022-10-22T11:06:13.128Z,1014.61
2022-10-22T11:07:30.002Z,1014.60
2022-10-22T11:08:13.252Z,1014.65
2022-10-22T11:09:13.351Z,1014.65
2022-10-22T11:10:13.324Z,1014.65
2022-10-22T11:11:13.220Z,1014.70
2022-10-22T11:12:13.367Z,1014.65
2022-10-22T11:13:13.512Z,1014.69
2022-10-22T11:14:13.447Z,1014.63
2022-10-22T11:15:13.499Z,1014.65
2022-10-22T11:16:13.564Z,1014.67
2022-10-22T11:17:13.567Z,1014.61
2022-10-22T11:18:13.471Z,1014.61
2022-10-22T11:19:22.533Z,1014.66
2022-10-22T11:20:13.965Z,1014.63
2022-10-22T11:21:12.832Z,1014.63
2022-10-22T11:22:13.909Z,1014.65
2022-10-22T11:23:19.487Z,1014.66
2022-10-22T11:24:13.741Z,1014.61
2022-10-22T11:25:13.757Z,1014.68
2022-10-22T11:26:14.658Z,1014.60
2022-10-22T11:27:13.728Z,1014.56
2022-10-22T11:29:13.815Z,1014.64
2022-10-22T11:30:13.913Z,1014.61
2022-10-22T11:31:13.022Z,1014.64
2022-10-22T11:32:13.269Z,1014.61
2022-10-22T11:33:13.446Z,1014.58
2022-10-22T11:34:32.717Z,1014.63
2022-10-22T11:35:12.876Z,1014.66
2022-10-22T11:36:12.789Z,1014.64
2022-10-22T11:37:13.733Z,1014.67
2022-10-22T11:38:13.846Z,1014.71
2022-10-22T11:39:13.765Z,1014.67
2022-10-22T11:40:13.917Z,1014.67
2022-10-22T11:41:13.056Z,1014.73
2022-10-22T11:42:13.229Z,1014.68
2022-10-22T11:43:13.515Z,1014.62
2022-10-22T11:44:13.892Z,1014.67
2022-10-22T11:45:12.958Z,1014.66
2022-10-22T11:46:13.042Z,1014.64
2022-10-22T11:47:13.415Z,1014.66
2022-10-22T11:48:13.739Z,1014.67
2022-10-22T11:49:13.844Z,1014.67
2022-10-22T11:50:14.141Z,1014.71
2022-10-22T11:51:13.105Z,1014.73
2022-10-22T11:52:13.455Z,1014.69
2022-10-22T11:53:13.935Z,1014.67
2022-10-22T11:54:13.250Z,1014.66
2022-10-22T11:55:13.204Z,1014.65
2022-10-22T11:56:13.210Z,1014.63
2022-10-22T11:57:13.269Z,1014.63
2022-10-22T11:58:13.630Z,1014.69
2022-10-22T11:59:13.960Z,1014.65
2022-10-22T12:00:12.824Z,1014.67
2022-10-22T12:01:13.879Z,1014.70
2022-10-22T12:02:14.057Z,1014.77
2022-10-22T12:03:13.292Z,1014.73
2022-10-22T12:04:13.262Z,1014.69
2022-10-22T12:05:13.217Z,1014.71
2022-10-22T12:06:13.408Z,1014.76
2022-10-22T12:07:13.383Z,1014.74
2022-10-22T12:08:15.603Z,1014.68
2022-10-22T12:09:13.127Z,1014.72
2022-10-22T12:10:14.983Z,1014.76